Time;durP1;ratioP1;P1;durP2;ratioP2;P2;SDS_P1;SDS_P2;PMS_P1;PMS_P2;Temp;Humidity;BMP_temperature;BMP_pressure;BME280_temperature;BME280_humidity;BME280_pressure;Samples;Min_cycle;Max_cycle;Signal;HPM_P1;HPM_P2
2021/05/28 00:01:13;;;;;;;2.53;1.87;;;7.50;99.90;;;;;;5038518;28;20166;-80
2021/05/28 00:03:38;;;;;;;3.30;2.07;;;7.60;99.90;;;;;;5038486;28;20498;-80
2021/05/28 00:06:04;;;;;;;9.13;2.40;;;7.60;99.90;;;;;;5045755;28;20577;-80
2021/05/28 00:08:29;;;;;;;5.40;2.13;;;7.60;99.90;;;;;;5036452;28;20197;-80
2021/05/28 00:10:55;;;;;;;2.10;1.60;;;7.60;99.90;;;;;;5036521;28;20545;-80
2021/05/28 00:13:21;;;;;;;3.23;1.90;;;7.60;99.90;;;;;;5038187;28;20193;-80
2021/05/28 00:15:47;;;;;;;4.77;1.70;;;7.70;99.90;;;;;;5038076;28;20181;-80
2021/05/28 00:18:12;;;;;;;2.57;1.97;;;7.70;99.90;;;;;;5037070;28;20185;-80
2021/05/28 00:20:38;;;;;;;2.97;2.00;;;7.80;99.90;;;;;;5044890;28;20185;-79
2021/05/28 00:23:04;;;;;;;2.20;1.60;;;7.80;99.90;;;;;;5036830;28;20190;-80
2021/05/28 00:25:29;;;;;;;2.30;1.97;;;7.90;99.90;;;;;;5037593;28;20190;-79
2021/05/28 00:27:56;;;;;;;2.70;2.00;;;7.90;99.90;;;;;;5037957;28;20194;-80
2021/05/28 00:30:22;;;;;;;2.33;1.87;;;7.80;99.90;;;;;;5037636;28;20181;-80
2021/05/28 00:32:47;;;;;;;2.10;1.90;;;7.90;99.90;;;;;;5036344;28;20170;-80
2021/05/28 00:35:13;;;;;;;3.13;2.00;;;7.90;99.90;;;;;;5036365;28;20225;-80
2021/05/28 00:37:40;;;;;;;1.73;1.60;;;7.90;99.90;;;;;;5036457;28;20585;-79
2021/05/28 00:40:06;;;;;;;2.33;1.87;;;8.00;99.90;;;;;;5037289;28;20181;-80
2021/05/28 00:42:33;;;;;;;3.63;2.13;;;7.90;99.90;;;;;;5036878;28;20178;-79
2021/05/28 00:44:58;;;;;;;2.40;1.90;;;7.90;99.90;;;;;;5044400;28;20198;-80
2021/05/28 00:47:24;;;;;;;2.93;1.80;;;7.90;99.90;;;;;;5046239;28;20183;-80
2021/05/28 00:49:50;;;;;;;2.20;2.00;;;7.90;99.90;;;;;;5041609;28;20257;-80
2021/05/28 00:52:16;;;;;;;1.57;1.40;;;7.80;99.90;;;;;;5041932;28;20182;-80
2021/05/28 00:54:42;;;;;;;2.13;1.40;;;7.80;99.90;;;;;;5041104;28;20248;-80
2021/05/28 00:57:07;;;;;;;1.77;1.67;;;7.80;99.90;;;;;;5040085;28;20182;-80
2021/05/28 00:59:34;;;;;;;2.20;1.63;;;7.70;99.90;;;;;;5039830;28;20186;-80
2021/05/28 01:02:00;;;;;;;1.67;1.30;;;7.80;99.90;;;;;;5040667;28;20201;-80
2021/05/28 01:04:25;;;;;;;3.10;2.00;;;7.80;99.90;;;;;;5041278;28;20206;-80
2021/05/28 01:06:51;;;;;;;1.90;1.57;;;7.70;99.90;;;;;;5041188;28;20644;-80
2021/05/28 01:09:17;;;;;;;1.83;1.70;;;7.70;99.90;;;;;;5041768;28;20233;-80
2021/05/28 01:11:43;;;;;;;2.20;1.90;;;7.70;99.90;;;;;;5040980;28;20182;-80
2021/05/28 01:14:09;;;;;;;2.33;1.97;;;7.60;99.90;;;;;;5040770;28;20194;-81
2021/05/28 01:16:34;;;;;;;2.67;1.90;;;7.60;99.90;;;;;;5039961;28;20205;-80
2021/05/28 01:19:00;;;;;;;2.17;1.80;;;7.60;99.90;;;;;;5039870;28;20178;-80
2021/05/28 01:21:27;;;;;;;2.17;1.50;;;7.60;99.90;;;;;;5039665;28;20183;-80
2021/05/28 01:23:54;;;;;;;2.63;1.60;;;7.60;99.90;;;;;;5040727;28;20558;-80
2021/05/28 01:26:20;;;;;;;2.93;1.20;;;7.60;99.90;;;;;;5039240;28;20270;-80
2021/05/28 01:28:46;;;;;;;3.47;1.47;;;7.60;99.90;;;;;;5041157;28;20488;-80
2021/05/28 01:31:12;;;;;;;1.50;1.40;;;7.60;99.90;;;;;;5039676;28;20232;-80
2021/05/28 01:33:43;;;;;;;2.57;1.67;;;7.60;99.90;;;;;;5040421;28;20436;-80
2021/05/28 01:36:08;;;;;;;1.37;1.27;;;7.60;99.90;;;;;;5039180;28;20693;-80
2021/05/28 01:38:35;;;;;;;3.93;1.33;;;7.60;99.90;;;;;;5039190;28;20206;-80
2021/05/28 01:41:00;;;;;;;2.53;1.50;;;7.50;99.90;;;;;;5041217;28;20201;-80
2021/05/28 01:43:26;;;;;;;2.07;1.30;;;7.50;99.90;;;;;;5040395;28;20440;-80
2021/05/28 01:45:52;;;;;;;2.90;1.60;;;7.40;99.90;;;;;;5040416;28;20178;-80
2021/05/28 01:48:18;;;;;;;3.20;2.20;;;7.40;99.90;;;;;;5040789;28;20657;-80
2021/05/28 01:50:44;;;;;;;2.63;1.53;;;7.30;99.90;;;;;;5039124;28;20269;-80
2021/05/28 01:53:12;;;;;;;1.87;1.53;;;7.20;99.90;;;;;;5040968;28;20177;-80
2021/05/28 01:55:37;;;;;;;2.33;1.80;;;7.20;99.90;;;;;;5039640;28;20188;-80
2021/05/28 01:58:08;;;;;;;1.90;1.70;;;7.20;99.90;;;;;;5041277;28;20895;-80
2021/05/28 02:00:34;;;;;;;1.87;1.63;;;7.10;99.90;;;;;;5044075;28;20649;-79
2021/05/28 02:03:00;;;;;;;1.90;1.80;;;7.10;99.90;;;;;;5038857;28;20188;-80
2021/05/28 02:05:25;;;;;;;1.57;1.40;;;7.00;99.90;;;;;;5039406;28;20233;-80
2021/05/28 02:07:51;;;;;;;1.70;1.60;;;6.90;99.90;;;;;;5039650;28;20204;-80
2021/05/28 02:10:17;;;;;;;1.90;1.70;;;6.90;99.90;;;;;;5039774;28;20253;-79
2021/05/28 02:12:42;;;;;;;1.77;1.53;;;6.90;99.90;;;;;;5038753;28;20180;-80
2021/05/28 02:15:09;;;;;;;1.57;1.33;;;6.80;99.90;;;;;;5038347;28;20675;-80
2021/05/28 02:17:35;;;;;;;1.70;1.50;;;6.80;99.90;;;;;;5046363;28;20186;-80
2021/05/28 02:20:00;;;;;;;1.77;1.60;;;6.80;99.90;;;;;;5040135;28;20189;-80
2021/05/28 02:22:26;;;;;;;3.10;1.27;;;6.80;99.90;;;;;;5039848;28;20174;-80
2021/05/28 02:24:52;;;;;;;2.13;1.50;;;6.70;99.90;;;;;;5038375;28;20221;-80
2021/05/28 02:27:18;;;;;;;1.43;1.30;;;6.70;99.90;;;;;;5039972;28;20201;-80
2021/05/28 02:29:43;;;;;;;1.77;1.20;;;6.70;99.90;;;;;;5040042;28;20236;-80
2021/05/28 02:32:09;;;;;;;3.90;2.47;;;6.80;99.90;;;;;;5040111;28;20186;-80
2021/05/28 02:34:35;;;;;;;1.70;1.60;;;6.80;99.90;;;;;;5039948;28;20281;-80
2021/05/28 02:37:00;;;;;;;1.63;1.20;;;6.80;99.90;;;;;;5041274;28;20170;-80
2021/05/28 02:39:26;;;;;;;2.23;1.70;;;6.80;99.90;;;;;;5039777;28;20182;-80
2021/05/28 02:41:51;;;;;;;3.00;1.37;;;6.80;99.90;;;;;;5040074;28;20576;-80
2021/05/28 02:44:17;;;;;;;3.80;1.70;;;6.70;99.90;;;;;;5039386;28;20292;-81
2021/05/28 02:46:43;;;;;;;2.03;1.37;;;6.70;99.90;;;;;;5040077;28;20209;-80
2021/05/28 02:49:09;;;;;;;1.40;1.13;;;6.70;99.90;;;;;;5040087;28;20202;-80
2021/05/28 02:51:35;;;;;;;3.00;1.63;;;6.70;99.90;;;;;;5038848;28;20228;-79
2021/05/28 02:54:00;;;;;;;1.63;1.53;;;6.60;99.90;;;;;;5039148;28;20206;-80
2021/05/28 02:56:26;;;;;;;2.43;1.77;;;6.60;99.90;;;;;;5037663;28;20182;-79
2021/05/28 02:58:52;;;;;;;1.50;1.30;;;6.60;99.90;;;;;;5037864;28;20178;-80
2021/05/28 03:01:17;;;;;;;1.27;1.17;;;6.50;99.90;;;;;;5038279;28;20579;-80
2021/05/28 03:03:43;;;;;;;1.57;1.47;;;6.40;99.90;;;;;;5038866;28;20204;-80
2021/05/28 03:06:08;;;;;;;1.93;1.50;;;6.40;99.90;;;;;;5039503;28;20182;-80
2021/05/28 03:08:34;;;;;;;1.60;1.50;;;6.40;99.90;;;;;;5040085;28;20210;-79
2021/05/28 03:11:00;;;;;;;1.77;1.50;;;6.40;99.90;;;;;;5051147;28;20240;-80
2021/05/28 03:13:26;;;;;;;1.57;1.37;;;6.30;99.90;;;;;;5037083;28;20277;-79
2021/05/28 03:15:51;;;;;;;1.60;1.47;;;6.30;99.90;;;;;;5036938;28;20174;-80
2021/05/28 03:18:19;;;;;;;1.50;1.40;;;6.20;99.90;;;;;;5038482;28;20173;-80
2021/05/28 03:21:07;;;;;;;2.00;1.30;;;6.20;99.90;;;;;;5038351;28;20193;-80
2021/05/28 03:23:34;;;;;;;1.73;1.27;;;6.10;99.90;;;;;;5036760;28;20494;-80
2021/05/28 03:26:00;;;;;;;2.03;1.67;;;6.10;99.90;;;;;;5037276;28;20444;-79
2021/05/28 03:28:26;;;;;;;1.87;1.77;;;6.10;99.90;;;;;;5037120;28;20609;-79
2021/05/28 03:30:51;;;;;;;2.03;1.43;;;6.10;99.90;;;;;;5036860;28;20267;-79
2021/05/28 03:33:17;;;;;;;1.67;1.43;;;6.10;99.90;;;;;;5038214;28;20613;-79
2021/05/28 03:35:42;;;;;;;3.03;1.80;;;6.00;99.90;;;;;;5036592;28;20182;-80
2021/05/28 03:38:08;;;;;;;1.87;1.70;;;6.00;99.90;;;;;;5036847;28;20248;-79
2021/05/28 03:40:34;;;;;;;3.07;1.63;;;6.00;99.90;;;;;;5036895;28;20794;-80
2021/05/28 03:42:59;;;;;;;2.93;1.60;;;6.00;99.90;;;;;;5037828;28;20174;-80
2021/05/28 03:45:25;;;;;;;1.87;1.60;;;6.00;99.90;;;;;;5038239;28;20186;-80
2021/05/28 03:47:51;;;;;;;1.50;1.40;;;6.00;99.90;;;;;;5037326;28;20693;-80
2021/05/28 03:50:16;;;;;;;3.77;1.43;;;6.00;99.90;;;;;;5036797;28;20170;-80
2021/05/28 03:52:42;;;;;;;1.70;1.60;;;6.00;99.90;;;;;;5037189;28;20190;-80
2021/05/28 03:55:08;;;;;;;2.20;1.63;;;5.90;99.90;;;;;;5036127;28;20213;-80
2021/05/28 03:57:34;;;;;;;1.70;1.60;;;5.90;99.90;;;;;;5038414;28;20178;-80
2021/05/28 04:00:00;;;;;;;1.50;1.33;;;5.80;99.90;;;;;;5036750;28;20264;-80
2021/05/28 04:02:25;;;;;;;3.43;1.60;;;5.80;99.90;;;;;;5036330;28;20180;-80
2021/05/28 04:04:51;;;;;;;2.83;1.77;;;5.80;99.90;;;;;;5036963;28;20198;-80
2021/05/28 04:07:17;;;;;;;2.30;1.27;;;5.70;99.90;;;;;;5037944;28;20185;-80
2021/05/28 04:09:43;;;;;;;1.43;1.30;;;5.80;99.90;;;;;;5038403;28;20205;-79
2021/05/28 04:12:08;;;;;;;1.90;1.50;;;5.70;99.90;;;;;;5038345;28;20636;-80
2021/05/28 04:14:35;;;;;;;4.83;1.50;;;5.70;99.90;;;;;;5038641;28;20201;-80
2021/05/28 04:17:01;;;;;;;3.80;1.77;;;5.80;99.90;;;;;;5038134;28;20250;-79
2021/05/28 04:19:27;;;;;;;1.50;1.40;;;5.80;99.90;;;;;;5039354;28;20449;-80
2021/05/28 04:21:52;;;;;;;2.83;1.30;;;5.80;99.90;;;;;;5043157;28;20186;-80
2021/05/28 04:24:18;;;;;;;1.33;1.23;;;5.80;99.90;;;;;;5041862;28;20227;-80
2021/05/28 04:26:44;;;;;;;2.27;1.50;;;5.80;99.90;;;;;;5041875;28;20225;-80
2021/05/28 04:29:12;;;;;;;1.87;1.63;;;5.90;99.90;;;;;;5042913;28;20207;-80
2021/05/28 04:31:38;;;;;;;2.20;1.47;;;5.90;99.90;;;;;;5047257;28;20181;-80
2021/05/28 04:34:03;;;;;;;1.50;1.40;;;5.90;99.90;;;;;;5041104;28;20443;-81
2021/05/28 04:36:29;;;;;;;3.07;1.37;;;5.90;99.90;;;;;;5041973;28;20182;-80
2021/05/28 04:38:55;;;;;;;2.03;1.33;;;6.00;99.90;;;;;;5041015;28;20178;-80
2021/05/28 04:41:20;;;;;;;6.63;1.40;;;6.00;99.90;;;;;;5042454;28;20181;-80
2021/05/28 04:43:46;;;;;;;3.40;1.50;;;6.00;99.90;;;;;;5041468;28;20202;-81
2021/05/28 04:46:12;;;;;;;3.30;1.50;;;6.00;99.90;;;;;;5044086;28;20194;-80
2021/05/28 04:48:37;;;;;;;2.67;1.50;;;6.10;99.90;;;;;;5046556;28;20214;-80
2021/05/28 04:51:03;;;;;;;3.43;1.67;;;6.10;99.90;;;;;;5040925;28;20228;-80
2021/05/28 04:53:29;;;;;;;4.30;1.40;;;6.20;99.90;;;;;;5040267;28;20843;-80
2021/05/28 04:55:54;;;;;;;1.77;1.60;;;6.30;99.90;;;;;;5041709;28;20166;-80
2021/05/28 04:58:20;;;;;;;2.10;1.30;;;6.20;99.90;;;;;;5040277;28;20189;-80
2021/05/28 05:00:46;;;;;;;4.57;1.33;;;6.40;99.90;;;;;;5041170;28;20652;-80
2021/05/28 05:03:11;;;;;;;1.70;1.20;;;6.40;99.90;;;;;;5040099;28;20185;-80
2021/05/28 05:05:37;;;;;;;1.70;1.43;;;6.40;99.90;;;;;;5039838;28;20178;-81
2021/05/28 05:08:03;;;;;;;1.73;1.50;;;6.50;99.90;;;;;;5041625;28;20217;-81
2021/05/28 05:10:29;;;;;;;1.90;1.70;;;6.50;99.90;;;;;;5040420;28;20178;-81
2021/05/28 05:12:55;;;;;;;1.47;1.37;;;6.50;99.90;;;;;;5042141;28;20193;-81
2021/05/28 05:15:21;;;;;;;1.40;1.20;;;6.50;99.90;;;;;;5041332;28;20194;-81
2021/05/28 05:17:47;;;;;;;8.63;1.73;;;6.60;99.90;;;;;;5040998;28;20170;-81
2021/05/28 05:20:13;;;;;;;3.20;1.47;;;6.70;99.90;;;;;;5041390;28;20421;-81
2021/05/28 05:22:39;;;;;;;4.50;1.50;;;6.80;99.90;;;;;;5044342;28;20244;-81
2021/05/28 05:25:05;;;;;;;2.93;1.43;;;6.90;99.90;;;;;;5041649;28;20692;-81
2021/05/28 05:27:31;;;;;;;2.00;1.63;;;7.00;99.90;;;;;;5041511;28;20178;-81
2021/05/28 05:29:57;;;;;;;1.80;1.53;;;7.10;99.90;;;;;;5042115;28;20895;-82
2021/05/28 05:32:22;;;;;;;1.50;1.30;;;7.20;99.90;;;;;;5041866;28;20182;-81
2021/05/28 05:34:48;;;;;;;1.60;1.50;;;7.30;99.90;;;;;;5041641;28;20553;-82
2021/05/28 05:37:14;;;;;;;4.07;1.30;;;7.50;99.90;;;;;;5042438;28;20241;-80
2021/05/28 05:39:40;;;;;;;1.50;1.10;;;7.60;99.90;;;;;;5042472;28;20182;-81
2021/05/28 05:42:06;;;;;;;2.50;1.30;;;7.70;99.90;;;;;;5041590;28;20174;-81
2021/05/28 05:44:32;;;;;;;2.10;1.10;;;7.80;99.90;;;;;;5044542;28;20500;-82
2021/05/28 05:46:58;;;;;;;1.77;1.40;;;8.00;99.90;;;;;;5050596;28;20971;-81
2021/05/28 05:49:23;;;;;;;3.03;1.30;;;8.10;99.90;;;;;;5055519;28;20569;-82
2021/05/28 05:51:49;;;;;;;2.73;1.50;;;8.20;99.90;;;;;;5056865;28;20208;-81
2021/05/28 05:54:14;;;;;;;3.07;1.50;;;8.30;99.90;;;;;;5044447;28;20191;-81
2021/05/28 05:56:41;;;;;;;3.10;1.40;;;8.30;99.90;;;;;;5043860;28;20231;-80
2021/05/28 05:59:07;;;;;;;1.73;1.57;;;8.40;99.90;;;;;;5049813;28;20236;-80
2021/05/28 06:01:33;;;;;;;2.40;1.80;;;8.50;99.90;;;;;;5040011;28;20268;-81
2021/05/28 06:04:00;;;;;;;4.23;3.07;;;8.60;99.90;;;;;;5040789;28;20279;-80
2021/05/28 06:06:26;;;;;;;1.47;1.30;;;8.70;99.90;;;;;;5040238;28;20244;-81
2021/05/28 06:08:53;;;;;;;2.10;1.43;;;8.80;99.90;;;;;;5041540;28;20201;-81
2021/05/28 06:11:18;;;;;;;2.67;1.43;;;9.00;99.90;;;;;;5043250;28;20590;-82
2021/05/28 06:13:44;;;;;;;1.77;1.50;;;9.10;99.90;;;;;;5047853;28;20208;-79
2021/05/28 06:16:11;;;;;;;1.83;1.20;;;9.30;99.90;;;;;;5046954;28;20187;-81
2021/05/28 06:18:37;;;;;;;5.73;1.50;;;9.40;99.90;;;;;;5043222;28;20180;-81
2021/05/28 06:21:02;;;;;;;5.00;1.37;;;9.50;99.90;;;;;;5043294;28;20173;-81
2021/05/28 06:23:28;;;;;;;2.67;1.40;;;9.70;99.90;;;;;;5042380;28;20211;-81
2021/05/28 06:25:55;;;;;;;3.00;1.60;;;9.90;99.90;;;;;;5042528;28;20191;-81
2021/05/28 06:28:21;;;;;;;2.23;1.60;;;10.10;99.90;;;;;;5041201;28;20211;-81
2021/05/28 06:30:47;;;;;;;4.13;1.50;;;10.20;99.90;;;;;;5041596;28;20174;-81
2021/05/28 06:33:12;;;;;;;1.83;1.23;;;10.40;99.90;;;;;;5040162;28;20273;-81
2021/05/28 06:35:39;;;;;;;4.63;1.53;;;10.50;99.90;;;;;;5040803;28;20178;-81
2021/05/28 06:38:05;;;;;;;5.10;2.30;;;10.60;99.90;;;;;;5042104;28;20199;-81
2021/05/28 06:40:31;;;;;;;2.10;1.60;;;10.80;99.90;;;;;;5043562;28;20186;-81
2021/05/28 06:42:57;;;;;;;3.87;1.70;;;11.00;99.90;;;;;;5051903;28;20236;-81
2021/05/28 06:45:22;;;;;;;2.07;1.77;;;11.10;99.90;;;;;;5039585;28;20234;-82
2021/05/28 06:47:49;;;;;;;4.43;2.17;;;11.20;99.90;;;;;;5040034;28;20228;-81
2021/05/28 06:50:16;;;;;;;1.90;1.60;;;11.20;99.90;;;;;;5039951;28;20246;-81
2021/05/28 06:52:42;;;;;;;2.77;1.70;;;11.40;99.90;;;;;;5041021;28;20174;-81
2021/05/28 06:55:09;;;;;;;3.47;1.80;;;11.60;99.90;;;;;;5039035;28;20201;-81
2021/05/28 06:57:35;;;;;;;2.33;1.70;;;11.90;99.90;;;;;;5039436;28;20584;-79
2021/05/28 07:00:02;;;;;;;4.43;1.77;;;12.10;99.90;;;;;;5039945;28;20529;-81
2021/05/28 07:02:28;;;;;;;3.33;1.80;;;12.30;99.90;;;;;;5039021;28;20198;-81
2021/05/28 07:04:53;;;;;;;2.53;2.30;;;12.40;99.90;;;;;;5038583;28;20200;-82
2021/05/28 07:07:19;;;;;;;2.60;2.00;;;12.60;99.90;;;;;;5039216;28;20182;-82
2021/05/28 07:09:45;;;;;;;4.83;2.00;;;12.70;99.90;;;;;;5039773;28;20186;-81
2021/05/28 07:12:11;;;;;;;2.97;2.13;;;12.70;99.90;;;;;;5040206;28;20219;-81
2021/05/28 07:14:38;;;;;;;2.20;1.80;;;12.90;99.90;;;;;;5038912;28;20194;-81
2021/05/28 07:17:04;;;;;;;3.77;2.30;;;12.90;99.90;;;;;;5038720;28;20180;-79
2021/05/28 07:19:29;;;;;;;2.33;2.13;;;13.10;99.90;;;;;;5037976;28;20178;-79
2021/05/28 07:21:55;;;;;;;3.70;2.00;;;13.30;99.90;;;;;;5038152;28;20219;-79
2021/05/28 07:24:21;;;;;;;4.47;2.00;;;13.40;99.90;;;;;;5038070;28;20247;-79
2021/05/28 07:26:46;;;;;;;3.13;2.37;;;13.50;99.90;;;;;;5037710;28;20182;-79
2021/05/28 07:29:12;;;;;;;2.43;2.13;;;13.50;99.90;;;;;;5038120;28;20198;-79
2021/05/28 07:31:39;;;;;;;4.40;2.03;;;13.60;99.90;;;;;;5037499;28;20547;-79
2021/05/28 07:34:05;;;;;;;2.70;2.13;;;13.80;99.90;;;;;;5039590;28;20224;-80
2021/05/28 07:36:30;;;;;;;2.50;1.90;;;13.80;99.90;;;;;;5038353;28;20181;-79
2021/05/28 07:38:56;;;;;;;2.20;2.00;;;13.80;99.90;;;;;;5038839;28;20178;-81
2021/05/28 07:41:22;;;;;;;2.80;2.30;;;14.00;99.90;;;;;;5037847;28;20178;-81
2021/05/28 07:43:47;;;;;;;3.50;2.53;;;14.20;99.90;;;;;;5037388;28;20197;-79
2021/05/28 07:46:14;;;;;;;3.33;1.97;;;14.20;99.90;;;;;;5036217;28;20287;-79
2021/05/28 07:48:39;;;;;;;5.30;2.00;;;14.20;99.90;;;;;;5036913;28;20755;-78
2021/05/28 07:51:05;;;;;;;2.97;1.90;;;14.10;99.90;;;;;;5037099;28;20217;-79
2021/05/28 07:53:31;;;;;;;2.53;1.70;;;14.20;99.90;;;;;;5038056;28;20186;-79
2021/05/28 07:56:04;;;;;;;2.90;2.30;;;14.20;99.90;;;;;;5037414;28;20178;-79
2021/05/28 07:58:30;;;;;;;2.53;1.83;;;14.40;99.90;;;;;;5037422;28;20260;-79
2021/05/28 08:00:56;;;;;;;2.50;2.10;;;14.60;99.90;;;;;;5037529;28;20174;-79
2021/05/28 08:03:22;;;;;;;5.87;2.33;;;14.60;99.90;;;;;;5037265;28;20232;-79
2021/05/28 08:05:50;;;;;;;2.47;2.10;;;14.60;99.90;;;;;;5037353;28;20237;-78
2021/05/28 08:08:21;;;;;;;2.63;2.13;;;14.80;99.90;;;;;;5037280;28;20259;-78
2021/05/28 08:10:48;;;;;;;2.43;2.07;;;15.10;99.90;;;;;;5036805;28;20535;-79
2021/05/28 08:13:14;;;;;;;2.47;2.27;;;15.00;99.90;;;;;;5038342;28;20731;-79
2021/05/28 08:15:40;;;;;;;3.73;2.73;;;15.20;99.90;;;;;;5034611;28;20235;-79
2021/05/28 08:18:06;;;;;;;2.33;2.10;;;15.40;99.90;;;;;;5034345;28;20174;-79
2021/05/28 08:20:32;;;;;;;4.27;2.33;;;15.60;99.90;;;;;;5038334;28;20181;-79
2021/05/28 08:22:59;;;;;;;2.37;2.17;;;15.70;99.90;;;;;;5036561;28;20186;-79
2021/05/28 08:25:26;;;;;;;4.73;2.20;;;15.80;99.90;;;;;;5036863;28;20567;-79
2021/05/28 08:27:51;;;;;;;9.40;2.90;;;16.40;99.90;;;;;;5036663;28;20182;-80
2021/05/28 08:30:18;;;;;;;3.47;2.37;;;17.20;99.90;;;;;;5038308;28;20536;-79
2021/05/28 08:32:45;;;;;;;3.13;2.47;;;17.90;99.90;;;;;;5038558;28;20649;-80
2021/05/28 08:35:11;;;;;;;2.50;2.30;;;18.20;99.90;;;;;;5035902;28;20199;-79
2021/05/28 08:37:37;;;;;;;2.23;2.00;;;18.80;99.90;;;;;;5034941;28;20179;-79
2021/05/28 08:40:04;;;;;;;3.30;2.30;;;19.10;99.90;;;;;;5036728;28;20177;-79
2021/05/28 08:42:30;;;;;;;2.77;2.20;;;18.90;99.90;;;;;;5036095;28;20653;-79
2021/05/28 08:44:56;;;;;;;2.53;2.30;;;18.20;99.90;;;;;;5035265;28;20228;-79
2021/05/28 08:47:23;;;;;;;4.03;2.17;;;17.90;99.90;;;;;;5036930;28;20259;-79
2021/05/28 08:49:51;;;;;;;3.47;2.60;;;18.20;99.90;;;;;;5035793;28;20197;-79
2021/05/28 08:52:18;;;;;;;4.87;2.63;;;18.80;99.90;;;;;;5036090;28;20177;-79
2021/05/28 08:54:44;;;;;;;5.90;2.80;;;19.80;99.90;;;;;;5038014;28;20198;-79
2021/05/28 08:57:11;;;;;;;2.77;2.47;;;20.20;99.20;;;;;;5048732;28;20184;-79
2021/05/28 08:59:37;;;;;;;2.20;2.00;;;20.70;98.40;;;;;;5038465;28;20200;-80
2021/05/28 09:02:03;;;;;;;2.40;2.10;;;20.90;99.90;;;;;;5044140;28;20641;-79
2021/05/28 09:04:28;;;;;;;2.70;2.50;;;21.10;96.20;;;;;;5050851;28;20202;-80
2021/05/28 09:06:54;;;;;;;2.83;2.17;;;20.40;95.30;;;;;;5056403;28;20193;-80
2021/05/28 09:09:23;;;;;;;4.33;2.30;;;19.20;96.30;;;;;;5050246;28;20718;-79
2021/05/28 09:11:52;;;;;;;5.43;2.37;;;18.20;98.80;;;;;;5040692;28;20174;-80
2021/05/28 09:14:40;;;;;;;3.30;2.50;;;17.70;99.90;;;;;;5040230;28;20289;-79
2021/05/28 09:17:08;;;;;;;3.03;2.27;;;17.30;99.90;;;;;;5041061;28;20178;-80
2021/05/28 09:19:35;;;;;;;2.83;2.27;;;16.80;99.90;;;;;;5041220;28;20185;-80
2021/05/28 09:22:09;;;;;;;3.23;2.80;;;16.60;99.90;;;;;;5042288;28;20174;-80
2021/05/28 09:24:38;;;;;;;2.63;2.40;;;16.30;99.90;;;;;;5041237;28;20361;-80
2021/05/28 09:27:23;;;;;;;5.07;2.70;;;16.40;99.90;;;;;;5041399;28;20262;-80
2021/05/28 09:30:01;;;;;;;2.23;2.03;;;17.70;99.90;;;;;;5042336;28;20199;-81
2021/05/28 09:32:27;;;;;;;2.80;2.00;;;18.90;99.90;;;;;;5040796;28;20180;-81
2021/05/28 09:34:53;;;;;;;3.83;2.10;;;19.30;97.20;;;;;;5041462;28;20665;-81
2021/05/28 09:37:18;;;;;;;2.13;1.93;;;18.70;96.20;;;;;;5042105;28;20232;-81
2021/05/28 09:39:44;;;;;;;2.63;2.43;;;18.20;95.20;;;;;;5040500;28;20221;-81
2021/05/28 09:42:10;;;;;;;3.50;2.73;;;17.70;97.80;;;;;;5038805;28;20180;-81
2021/05/28 09:44:36;;;;;;;5.10;3.10;;;18.10;99.90;;;;;;5038681;28;20204;-81
2021/05/28 09:47:18;;;;;;;3.30;2.70;;;18.90;99.90;;;;;;5041269;28;20263;-81
2021/05/28 09:49:54;;;;;;;3.87;2.80;;;19.60;98.60;;;;;;5041580;28;20197;-81
2021/05/28 09:52:26;;;;;;;5.87;2.10;;;19.70;96.70;;;;;;5040260;28;20178;-81
2021/05/28 09:55:00;;;;;;;4.87;2.63;;;19.30;96.60;;;;;;5041577;28;20198;-81
2021/05/28 09:57:47;;;;;;;2.77;2.33;;;18.20;97.50;;;;;;5040760;28;20621;-81
2021/05/28 10:00:21;;;;;;;2.30;1.93;;;17.40;96.80;;;;;;5040139;28;20273;-81
2021/05/28 10:02:49;;;;;;;3.43;2.77;;;17.00;98.90;;;;;;5042059;28;20755;-81
2021/05/28 10:05:24;;;;;;;3.30;2.30;;;17.00;99.70;;;;;;5040061;28;20203;-81
2021/05/28 10:07:51;;;;;;;2.53;2.33;;;17.10;97.90;;;;;;5041581;28;20169;-81
2021/05/28 10:10:18;;;;;;;3.30;3.00;;;17.70;99.70;;;;;;5039895;28;20179;-81
2021/05/28 10:12:48;;;;;;;3.07;2.33;;;18.60;96.90;;;;;;5040433;28;20213;-81
2021/05/28 10:15:14;;;;;;;3.87;2.23;;;19.30;98.20;;;;;;5040954;28;20198;-82
2021/05/28 10:17:41;;;;;;;3.00;2.70;;;20.00;96.90;;;;;;5040800;28;20227;-82
2021/05/28 10:20:07;;;;;;;6.80;2.70;;;20.30;95.10;;;;;;5040937;28;20265;-82
2021/05/28 10:22:33;;;;;;;4.60;2.40;;;19.50;94.50;;;;;;5040493;28;20675;-81
2021/05/28 10:25:01;;;;;;;5.47;2.60;;;18.80;95.40;;;;;;5040071;28;20217;-81
2021/05/28 10:27:27;;;;;;;2.80;2.60;;;18.40;96.10;;;;;;5041575;28;20171;-81
2021/05/28 10:29:54;;;;;;;3.20;2.60;;;18.00;97.40;;;;;;5041484;28;20205;-82
2021/05/28 10:32:20;;;;;;;5.33;3.50;;;17.70;97.50;;;;;;5040152;28;20251;-81
2021/05/28 10:35:05;;;;;;;4.07;2.43;;;17.80;98.00;;;;;;5041222;28;20244;-81
2021/05/28 10:37:31;;;;;;;17.57;3.33;;;18.60;98.00;;;;;;5040883;28;20170;-81
2021/05/28 10:39:58;;;;;;;3.10;2.57;;;19.30;99.90;;;;;;5040928;28;20177;-81
2021/05/28 10:42:24;;;;;;;2.87;2.53;;;20.00;96.30;;;;;;5039890;28;20198;-82
2021/05/28 10:44:49;;;;;;;2.60;2.40;;;20.40;93.50;;;;;;5042051;28;20194;-81
2021/05/28 10:47:15;;;;;;;6.47;3.00;;;20.40;94.30;;;;;;5040664;28;20181;-81
2021/05/28 10:50:04;;;;;;;3.20;2.67;;;20.60;94.90;;;;;;5039380;28;20672;-81
2021/05/28 10:52:35;;;;;;;3.07;2.77;;;20.70;94.30;;;;;;5035420;28;20700;-81
2021/05/28 10:55:11;;;;;;;3.90;2.60;;;21.00;95.70;;;;;;5037786;28;20202;-81
2021/05/28 10:57:48;;;;;;;2.70;2.50;;;21.40;94.40;;;;;;5038793;28;20216;-82
2021/05/28 11:00:25;;;;;;;2.77;2.43;;;21.40;92.80;;;;;;5037154;28;20177;-81
2021/05/28 11:02:55;;;;;;;2.40;2.20;;;20.90;87.00;;;;;;5037468;28;20200;-81
2021/05/28 11:05:40;;;;;;;2.93;2.63;;;20.70;92.50;;;;;;5035947;28;20570;-78
2021/05/28 11:08:41;;;;;;;4.77;2.67;;;20.30;92.20;;;;;;5038959;28;20200;-82
2021/05/28 11:11:06;;;;;;;6.40;2.30;;;19.40;92.20;;;;;;5046706;28;20170;-81
2021/05/28 11:13:57;;;;;;;2.23;1.90;;;19.40;92.20;;;;;;5037912;28;20257;-81
2021/05/28 11:16:23;;;;;;;6.60;1.87;;;20.30;92.00;;;;;;5039479;28;20497;-81
2021/05/28 11:18:50;;;;;;;2.83;2.20;;;20.60;91.60;;;;;;5038913;28;20219;-81
2021/05/28 11:21:19;;;;;;;1.97;1.87;;;21.10;93.00;;;;;;5048910;28;20154;-82
2021/05/28 11:23:47;;;;;;;2.67;2.40;;;21.60;90.30;;;;;;5040971;28;20201;-81
2021/05/28 11:26:27;;;;;;;3.50;2.20;;;21.60;86.80;;;;;;5040638;28;20189;-81
2021/05/28 11:29:01;;;;;;;2.53;1.93;;;21.50;86.20;;;;;;5042816;28;20202;-81
2021/05/28 11:31:30;;;;;;;3.43;2.00;;;21.90;90.80;;;;;;5040202;28;20169;-81
2021/05/28 11:34:01;;;;;;;2.73;2.03;;;21.50;94.00;;;;;;5038485;28;20201;-80
2021/05/28 11:36:35;;;;;;;5.70;2.00;;;20.70;86.40;;;;;;5038638;28;20206;-82
2021/05/28 11:39:05;;;;;;;4.57;2.23;;;20.50;86.90;;;;;;5038787;28;20174;-81
2021/05/28 11:42:03;;;;;;;2.40;2.20;;;20.60;90.60;;;;;;5040518;28;20160;-81
2021/05/28 11:44:34;;;;;;;2.70;2.50;;;20.80;85.10;;;;;;5039948;28;20574;-79
2021/05/28 11:47:02;;;;;;;5.07;2.43;;;20.70;89.00;;;;;;5039496;28;20201;-82
2021/05/28 11:49:27;;;;;;;4.33;2.30;;;21.30;92.30;;;;;;5038074;28;20685;-81
2021/05/28 11:52:02;;;;;;;2.40;2.20;;;23.00;87.70;;;;;;5039541;28;20205;-81
2021/05/28 11:54:30;;;;;;;4.13;2.70;;;23.30;84.60;;;;;;5039107;28;20222;-81
2021/05/28 11:56:59;;;;;;;2.27;2.07;;;23.10;80.00;;;;;;5036437;28;20181;-81
2021/05/28 11:59:50;;;;;;;3.23;2.67;;;23.00;82.70;;;;;;5037683;28;20188;-81
2021/05/28 12:02:44;;;;;;;3.33;2.53;;;23.10;81.80;;;;;;5037203;28;20173;-83
2021/05/28 12:05:36;;;;;;;2.30;2.10;;;23.40;78.10;;;;;;5037521;28;20202;-81
2021/05/28 12:08:11;;;;;;;3.03;2.50;;;23.40;83.70;;;;;;5037395;28;20546;-81
2021/05/28 12:10:48;;;;;;;2.77;2.47;;;23.40;85.70;;;;;;5037583;28;20638;-79
2021/05/28 12:13:19;;;;;;;2.53;2.10;;;22.90;80.70;;;;;;5034780;28;20167;-81
2021/05/28 12:15:48;;;;;;;2.90;2.30;;;22.90;81.50;;;;;;5019416;28;20173;-79
2021/05/28 12:18:19;;;;;;;3.43;1.67;;;23.40;79.90;;;;;;5022999;28;20648;-80
2021/05/28 12:21:07;;;;;;;4.03;1.97;;;24.20;76.50;;;;;;5037487;28;20181;-80
2021/05/28 12:23:43;;;;;;;2.43;1.90;;;24.90;73.50;;;;;;5052199;28;20213;-80
2021/05/28 12:26:19;;;;;;;3.10;1.90;;;25.10;69.60;;;;;;5032766;28;20184;-78
2021/05/28 12:28:51;;;;;;;4.40;1.90;;;24.70;77.00;;;;;;5026402;28;20201;-79
2021/05/28 12:31:21;;;;;;;4.73;1.87;;;24.70;72.20;;;;;;5036186;28;20692;-79
2021/05/28 12:33:52;;;;;;;5.20;2.17;;;23.60;78.00;;;;;;5035853;28;20208;-79
2021/05/28 12:36:24;;;;;;;2.77;2.10;;;22.70;75.20;;;;;;5032362;28;20192;-79
2021/05/28 12:38:50;;;;;;;5.43;2.27;;;23.20;75.80;;;;;;5031019;28;20641;-80
2021/05/28 12:41:21;;;;;;;2.20;1.80;;;23.00;74.50;;;;;;5019180;28;20180;-80
2021/05/28 12:43:52;;;;;;;4.17;1.97;;;22.00;78.00;;;;;;5022739;28;20201;-79
2021/05/28 12:46:27;;;;;;;4.57;2.40;;;21.90;82.30;;;;;;5021508;28;20175;-79
2021/05/28 12:48:59;;;;;;;2.93;2.20;;;22.90;77.70;;;;;;5020612;28;20199;-80
2021/05/28 12:51:29;;;;;;;3.10;2.60;;;24.00;82.00;;;;;;5020269;28;20183;-80
2021/05/28 12:53:56;;;;;;;2.10;1.90;;;24.80;77.20;;;;;;5021114;28;20225;-81
2021/05/28 12:56:28;;;;;;;2.27;1.87;;;25.70;69.60;;;;;;5020989;28;20662;-80